createdAt,value
2018-03-17T00:00:35.584Z,83.13
2018-03-17T00:03:02.994Z,83.42
2018-03-17T00:05:30.409Z,83.57
2018-03-17T00:07:57.815Z,83.62
2018-03-17T00:10:25.220Z,83.90
2018-03-17T00:12:52.642Z,84.41
2018-03-17T00:15:20.046Z,84.79
2018-03-17T00:17:47.455Z,85.03
2018-03-17T00:20:14.872Z,85.42
2018-03-17T00:22:42.274Z,85.40
2018-03-17T00:25:09.679Z,85.35
2018-03-17T00:27:37.086Z,85.25
2018-03-17T00:30:04.486Z,85.10
2018-03-17T00:32:31.945Z,84.91
2018-03-17T00:34:59.306Z,84.69
2018-03-17T00:37:26.723Z,84.61
2018-03-17T00:39:54.131Z,84.54
2018-03-17T00:42:21.544Z,84.49
2018-03-17T00:44:48.954Z,84.39
2018-03-17T00:47:16.378Z,83.97
2018-03-17T00:49:43.782Z,83.63
2018-03-17T00:52:11.200Z,83.76
2018-03-17T00:54:38.611Z,82.62
2018-03-17T00:57:06.030Z,82.43
2018-03-17T00:59:33.436Z,81.81
2018-03-17T01:02:00.887Z,80.79
2018-03-17T01:04:28.271Z,80.04
2018-03-17T01:06:55.693Z,80.66
2018-03-17T01:09:23.089Z,81.93
2018-03-17T01:11:50.508Z,83.10
2018-03-17T01:14:17.915Z,83.82
2018-03-17T01:16:45.337Z,84.58
2018-03-17T01:19:12.746Z,85.45
2018-03-17T01:21:40.175Z,85.35
2018-03-17T01:24:07.578Z,85.94
2018-03-17T01:26:34.982Z,87.12
2018-03-17T01:29:02.405Z,87.44
2018-03-17T01:31:29.824Z,87.18
2018-03-17T01:33:57.240Z,87.44
2018-03-17T01:36:24.659Z,88.52
2018-03-17T01:38:52.068Z,88.93
2018-03-17T01:41:19.484Z,89.03
2018-03-17T01:43:46.927Z,88.57
2018-03-17T01:46:14.326Z,88.91
2018-03-17T01:48:41.742Z,88.85
2018-03-17T01:51:09.152Z,89.32
2018-03-17T01:53:36.579Z,89.56
2018-03-17T01:56:03.977Z,89.58
2018-03-17T01:58:31.394Z,89.55
2018-03-17T02:00:58.798Z,89.63
2018-03-17T02:03:26.214Z,89.27
2018-03-17T02:05:53.619Z,88.95
2018-03-17T02:08:21.025Z,88.93
2018-03-17T02:10:48.442Z,88.76
2018-03-17T02:13:15.863Z,88.53
2018-03-17T02:15:43.261Z,88.65
2018-03-17T02:18:10.682Z,88.96
2018-03-17T02:20:38.096Z,88.71
2018-03-17T02:23:05.513Z,88.55
2018-03-17T02:25:32.921Z,89.09
2018-03-17T02:28:00.333Z,89.03
2018-03-17T02:30:27.744Z,89.37
2018-03-17T02:32:55.159Z,89.12
2018-03-17T02:35:22.563Z,89.33
2018-03-17T02:37:49.974Z,88.91
2018-03-17T02:40:17.392Z,89.34
2018-03-17T02:42:44.810Z,89.52
2018-03-17T02:45:12.228Z,89.50
2018-03-17T02:47:39.643Z,89.65
2018-03-17T02:50:07.058Z,89.52
2018-03-17T02:52:34.517Z,89.70
2018-03-17T02:55:01.888Z,89.51
2018-03-17T02:57:29.295Z,89.55
2018-03-17T02:59:56.710Z,89.60
2018-03-17T03:02:24.114Z,89.80
2018-03-17T03:04:51.525Z,89.86
2018-03-17T03:07:18.936Z,89.75
2018-03-17T03:09:46.378Z,89.70
2018-03-17T03:12:13.761Z,89.50
2018-03-17T03:14:41.178Z,89.61
2018-03-17T03:17:08.582Z,89.53
2018-03-17T03:19:35.991Z,89.81
2018-03-17T03:22:03.391Z,89.87
2018-03-17T03:24:30.796Z,90.03
2018-03-17T03:26:58.209Z,89.80
2018-03-17T03:29:25.625Z,89.85
2018-03-17T03:31:53.029Z,89.96
2018-03-17T03:34:20.433Z,89.89
2018-03-17T03:36:47.849Z,89.93
2018-03-17T03:39:15.250Z,89.67
2018-03-17T03:41:42.694Z,89.41
2018-03-17T03:44:10.098Z,88.95
2018-03-17T03:46:37.514Z,88.96
2018-03-17T03:49:04.922Z,89.08
2018-03-17T03:51:32.328Z,89.20
2018-03-17T03:53:59.748Z,88.98
2018-03-17T03:56:27.169Z,88.80
2018-03-17T03:58:54.578Z,88.87
2018-03-17T04:01:22.006Z,88.63
2018-03-17T04:03:49.414Z,88.48
2018-03-17T04:06:16.838Z,88.40
2018-03-17T04:08:44.253Z,88.60
2018-03-17T04:11:11.666Z,88.93
2018-03-17T04:13:39.078Z,88.67
2018-03-17T04:16:06.508Z,88.66
2018-03-17T04:18:33.907Z,88.71
2018-03-17T04:21:01.324Z,88.84
2018-03-17T04:23:28.735Z,88.84
2018-03-17T04:25:56.141Z,88.85
2018-03-17T04:28:23.555Z,88.97
2018-03-17T04:30:50.969Z,88.78
2018-03-17T04:33:18.377Z,88.85
2018-03-17T04:35:45.790Z,88.82
2018-03-17T04:38:13.204Z,89.03
2018-03-17T04:40:40.623Z,89.06
2018-03-17T04:43:08.030Z,89.00
2018-03-17T04:45:35.450Z,88.89
2018-03-17T04:48:02.864Z,88.77
2018-03-17T04:50:30.274Z,88.69
2018-03-17T04:52:57.686Z,88.92
2018-03-17T04:55:25.094Z,88.57
2018-03-17T04:57:52.505Z,88.25
2018-03-17T05:00:19.909Z,88.45
2018-03-17T05:02:47.342Z,88.58
2018-03-17T05:05:14.737Z,88.33
2018-03-17T05:07:42.154Z,88.28
2018-03-17T05:10:09.560Z,88.32
2018-03-17T05:12:36.973Z,88.48
2018-03-17T05:15:05.301Z,88.69
2018-03-17T05:17:32.713Z,88.69
2018-03-17T05:20:00.110Z,88.36
2018-03-17T05:22:27.790Z,88.07
2018-03-17T05:24:55.202Z,88.33
2018-03-17T05:27:22.630Z,88.28
2018-03-17T05:29:50.034Z,88.38
2018-03-17T05:32:17.832Z,88.34
2018-03-17T05:34:45.237Z,88.28
2018-03-17T05:37:12.658Z,88.48
2018-03-17T05:39:40.064Z,88.56
2018-03-17T05:42:07.474Z,88.55
2018-03-17T05:44:34.878Z,88.42
2018-03-17T05:47:02.311Z,88.41
2018-03-17T05:49:29.731Z,88.20
2018-03-17T05:51:57.141Z,88.17
2018-03-17T05:54:24.559Z,88.25
2018-03-17T05:56:51.966Z,87.81
2018-03-17T05:59:19.394Z,87.93
2018-03-17T06:01:46.799Z,88.01
2018-03-17T06:04:14.218Z,88.00
2018-03-17T06:06:41.623Z,87.90
2018-03-17T06:09:09.034Z,87.93
2018-03-17T06:11:36.442Z,87.73
2018-03-17T06:14:03.923Z,87.62
2018-03-17T06:16:31.268Z,87.81
2018-03-17T06:18:58.686Z,87.72
2018-03-17T06:21:26.182Z,87.61
2018-03-17T06:23:53.667Z,87.68
2018-03-17T06:26:21.074Z,87.60
2018-03-17T06:28:48.491Z,87.36
2018-03-17T06:31:15.908Z,87.32
2018-03-17T06:33:43.301Z,87.32
2018-03-17T06:36:10.740Z,87.14
2018-03-17T06:38:38.150Z,87.05
2018-03-17T06:41:05.554Z,87.02
2018-03-17T06:43:32.966Z,86.93
2018-03-17T06:46:00.377Z,86.82
2018-03-17T06:48:27.832Z,86.66
2018-03-17T06:50:55.248Z,86.48
2018-03-17T06:53:22.687Z,86.39
2018-03-17T06:55:50.153Z,86.56
2018-03-17T06:58:17.722Z,86.66
2018-03-17T07:00:45.135Z,86.66
2018-03-17T07:03:12.544Z,86.49
2018-03-17T07:05:39.950Z,86.50
2018-03-17T07:08:07.354Z,86.70
2018-03-17T07:10:34.767Z,86.63
2018-03-17T07:13:02.182Z,86.39
2018-03-17T07:15:29.596Z,86.23
2018-03-17T07:17:56.990Z,86.22
2018-03-17T07:20:24.402Z,86.37
2018-03-17T07:22:51.972Z,86.19
2018-03-17T07:25:20.315Z,85.96
2018-03-17T07:27:47.679Z,86.05
2018-03-17T07:30:15.099Z,85.86
2018-03-17T07:32:42.507Z,85.89
2018-03-17T07:35:10.008Z,85.82
2018-03-17T07:37:37.420Z,85.63
2018-03-17T07:40:04.832Z,85.66
2018-03-17T07:42:32.286Z,85.33
2018-03-17T07:44:59.703Z,85.49
2018-03-17T07:47:27.116Z,85.49
2018-03-17T07:49:54.527Z,84.98
2018-03-17T07:52:21.940Z,84.96
2018-03-17T07:54:49.363Z,85.12
2018-03-17T07:57:16.770Z,84.98
2018-03-17T07:59:44.182Z,84.63
2018-03-17T08:02:11.586Z,84.74
2018-03-17T08:04:38.991Z,84.76
2018-03-17T08:07:06.407Z,84.75
2018-03-17T08:09:33.849Z,84.60
2018-03-17T08:12:01.410Z,84.62
2018-03-17T08:14:28.831Z,84.65
2018-03-17T08:16:56.243Z,84.44
2018-03-17T08:19:23.648Z,84.13
2018-03-17T08:21:51.074Z,84.69
2018-03-17T08:24:18.468Z,83.99
2018-03-17T08:26:45.878Z,83.39
2018-03-17T08:29:13.285Z,83.77
2018-03-17T08:31:40.707Z,83.15
2018-03-17T08:34:08.151Z,83.32
2018-03-17T08:36:35.555Z,83.37
2018-03-17T08:39:02.950Z,83.61
2018-03-17T08:41:30.364Z,82.99
2018-03-17T08:43:57.767Z,83.28
2018-03-17T08:46:25.188Z,83.63
2018-03-17T08:48:52.601Z,83.51
2018-03-17T08:51:20.270Z,83.34
2018-03-17T08:53:47.681Z,83.69
2018-03-17T08:56:15.090Z,83.31
2018-03-17T08:58:42.499Z,83.15
2018-03-17T09:01:09.914Z,83.31
2018-03-17T09:03:37.318Z,83.38
2018-03-17T09:06:04.750Z,83.55
2018-03-17T09:08:32.157Z,82.93
2018-03-17T09:10:59.567Z,82.84
2018-03-17T09:13:27.003Z,82.48
2018-03-17T09:15:54.412Z,81.98
2018-03-17T09:18:21.858Z,81.97
2018-03-17T09:20:49.266Z,81.94
2018-03-17T09:23:16.690Z,81.44
2018-03-17T09:25:44.100Z,81.60
2018-03-17T09:28:11.512Z,81.53
2018-03-17T09:30:38.925Z,81.28
2018-03-17T09:33:06.338Z,80.90
2018-03-17T09:35:33.737Z,81.18
2018-03-17T09:38:01.154Z,81.08
2018-03-17T09:40:28.666Z,80.85
2018-03-17T09:42:56.082Z,80.56
2018-03-17T09:45:23.494Z,80.59
2018-03-17T09:47:50.917Z,80.58
2018-03-17T09:50:18.321Z,80.38
2018-03-17T09:52:45.738Z,80.19
2018-03-17T09:55:13.141Z,79.95
2018-03-17T09:57:40.587Z,80.39
2018-03-17T10:00:07.995Z,80.44
2018-03-17T10:02:35.407Z,80.48
2018-03-17T10:05:02.820Z,80.11
2018-03-17T10:07:30.230Z,80.68
2018-03-17T10:09:57.647Z,80.49
2018-03-17T10:12:25.055Z,80.29
2018-03-17T10:14:52.465Z,79.58
2018-03-17T10:17:19.862Z,79.94
2018-03-17T10:19:47.274Z,80.05
2018-03-17T10:22:14.678Z,79.27
2018-03-17T10:24:42.085Z,79.11
2018-03-17T10:27:09.493Z,78.85
2018-03-17T10:29:36.999Z,78.71
2018-03-17T10:32:04.426Z,78.22
2018-03-17T10:34:31.919Z,78.52
2018-03-17T10:36:59.314Z,78.37
2018-03-17T10:39:26.727Z,77.17
2018-03-17T10:41:54.140Z,77.16
2018-03-17T10:44:21.546Z,76.92
2018-03-17T10:46:51.307Z,75.78
2018-03-17T10:49:18.718Z,76.38
2018-03-17T10:51:46.277Z,76.41
2018-03-17T10:54:13.711Z,76.83
2018-03-17T10:56:41.098Z,75.97
2018-03-17T10:59:08.552Z,75.96
2018-03-17T11:01:41.935Z,75.75
2018-03-17T11:04:09.441Z,75.10
2018-03-17T11:06:36.850Z,76.03
2018-03-17T11:09:04.266Z,76.34
2018-03-17T11:11:31.686Z,76.22
2018-03-17T11:13:59.099Z,75.96
2018-03-17T11:16:26.502Z,76.09
2018-03-17T11:18:53.916Z,75.74
2018-03-17T11:21:21.337Z,75.96
2018-03-17T11:23:48.848Z,76.46
2018-03-17T11:26:16.293Z,76.68
2018-03-17T11:28:43.699Z,76.54
2018-03-17T11:31:11.112Z,75.85
2018-03-17T11:33:38.530Z,76.29
2018-03-17T11:36:05.938Z,76.04
2018-03-17T11:38:33.346Z,75.91
2018-03-17T11:41:00.777Z,75.77
2018-03-17T11:43:28.190Z,76.13
2018-03-17T11:45:55.598Z,76.04
2018-03-17T11:48:23.032Z,76.20
2018-03-17T11:50:50.582Z,76.23
2018-03-17T11:53:18.220Z,76.70
2018-03-17T11:55:45.801Z,75.58
2018-03-17T11:58:13.214Z,74.88
2018-03-17T12:00:40.619Z,75.21
2018-03-17T12:03:08.039Z,74.75
2018-03-17T12:05:35.446Z,74.73
2018-03-17T12:08:02.867Z,74.46
2018-03-17T12:10:30.271Z,74.59
2018-03-17T12:12:57.684Z,74.34
2018-03-17T12:15:25.091Z,74.82
2018-03-17T12:17:52.505Z,75.26
2018-03-17T12:20:19.932Z,75.00
2018-03-17T12:22:47.343Z,74.65
2018-03-17T12:25:14.760Z,74.60
2018-03-17T12:27:42.177Z,75.02
2018-03-17T12:30:09.591Z,74.80
2018-03-17T12:32:37.007Z,75.08
2018-03-17T12:35:04.412Z,75.57
2018-03-17T12:37:31.823Z,74.25
2018-03-17T12:39:59.221Z,73.71
2018-03-17T12:42:26.639Z,74.22
2018-03-17T12:44:54.043Z,74.40
2018-03-17T12:47:21.462Z,74.35
2018-03-17T12:49:48.868Z,74.16
2018-03-17T12:52:16.299Z,74.44
2018-03-17T12:54:43.705Z,73.85
2018-03-17T12:57:11.105Z,74.19
2018-03-17T12:59:38.529Z,73.99
2018-03-17T13:02:05.936Z,73.97
2018-03-17T13:04:33.354Z,73.93
2018-03-17T13:07:00.758Z,74.24
2018-03-17T13:09:28.174Z,74.69
2018-03-17T13:11:55.576Z,74.54
2018-03-17T13:14:22.991Z,74.58
2018-03-17T13:16:50.396Z,74.58
2018-03-17T13:19:29.542Z,74.21
2018-03-17T13:21:56.945Z,74.38
2018-03-17T13:24:24.358Z,73.44
2018-03-17T13:27:03.519Z,74.35
2018-03-17T13:29:30.934Z,74.00
2018-03-17T13:31:58.348Z,74.34
2018-03-17T13:34:25.759Z,74.50
2018-03-17T13:37:05.118Z,74.52
2018-03-17T13:39:32.538Z,74.50
2018-03-17T13:41:59.944Z,74.75
2018-03-17T13:44:27.355Z,74.62
2018-03-17T13:46:54.771Z,74.24
2018-03-17T13:49:22.195Z,74.03
2018-03-17T13:51:49.589Z,74.37
2018-03-17T13:54:17.011Z,74.65
2018-03-17T13:56:44.417Z,75.08
2018-03-17T13:59:11.830Z,75.09
2018-03-17T14:01:39.240Z,74.83
2018-03-17T14:04:06.668Z,74.54
2018-03-17T14:06:34.081Z,74.86
2018-03-17T14:09:01.489Z,74.81
2018-03-17T14:11:28.902Z,74.65
2018-03-17T14:13:56.336Z,74.77
2018-03-17T14:16:23.748Z,74.78
2018-03-17T14:18:51.177Z,74.77
2018-03-17T14:21:18.618Z,74.85
2018-03-17T14:23:46.067Z,74.78
2018-03-17T14:26:13.456Z,75.02
2018-03-17T14:28:40.867Z,74.53
2018-03-17T14:31:08.283Z,74.91
2018-03-17T14:33:35.694Z,75.01
2018-03-17T14:36:03.119Z,74.82
2018-03-17T14:38:30.538Z,74.69
2018-03-17T14:40:57.995Z,74.58
2018-03-17T14:43:25.414Z,74.43
2018-03-17T14:45:52.836Z,74.17
2018-03-17T14:51:20.126Z,74.51
2018-03-17T14:53:47.555Z,74.63
2018-03-17T14:56:14.975Z,74.68
2018-03-17T14:58:42.528Z,74.19
2018-03-17T15:01:11.587Z,74.55
2018-03-17T15:03:39.024Z,74.92
2018-03-17T15:06:06.458Z,74.54
2018-03-17T15:08:33.900Z,74.58
2018-03-17T15:11:07.579Z,74.58
2018-03-17T15:13:42.813Z,74.52
2018-03-17T15:16:12.371Z,74.60
2018-03-17T15:18:45.680Z,74.61
2018-03-17T15:21:13.144Z,74.44
2018-03-17T15:23:40.563Z,74.17
2018-03-17T15:26:08.003Z,74.53
2018-03-17T15:28:36.886Z,74.40
2018-03-17T15:31:04.352Z,74.50
2018-03-17T15:33:31.798Z,74.16
2018-03-17T15:35:59.271Z,74.30
2018-03-17T15:38:26.698Z,74.31
2018-03-17T15:40:54.148Z,74.08
2018-03-17T15:43:21.554Z,74.19
2018-03-17T15:45:49.008Z,74.39
2018-03-17T15:48:16.440Z,74.22
2018-03-17T15:50:43.855Z,74.21
2018-03-17T15:53:11.287Z,74.33
2018-03-17T15:55:38.723Z,74.48
2018-03-17T15:58:06.174Z,73.94
2018-03-17T16:00:33.595Z,74.17
2018-03-17T16:03:01.024Z,74.14
2018-03-17T16:05:28.443Z,73.94
2018-03-17T16:07:55.876Z,74.17
2018-03-17T16:10:23.331Z,74.51
2018-03-17T16:12:50.787Z,73.72
2018-03-17T16:15:18.351Z,74.08
2018-03-17T16:17:45.735Z,73.98
2018-03-17T16:20:13.163Z,73.76
2018-03-17T16:22:40.590Z,73.87
2018-03-17T16:25:08.158Z,73.98
2018-03-17T16:27:35.577Z,73.52
2018-03-17T16:30:03.004Z,73.80
2018-03-17T16:32:30.559Z,73.55
2018-03-17T16:34:57.982Z,73.51
2018-03-17T16:37:25.403Z,73.44
2018-03-17T16:39:52.854Z,73.50
2018-03-17T16:42:20.300Z,73.45
2018-03-17T16:44:47.711Z,73.40
2018-03-17T16:47:15.152Z,73.42
2018-03-17T16:49:42.558Z,73.33
2018-03-17T16:52:10.016Z,73.62
2018-03-17T16:54:37.431Z,73.74
2018-03-17T16:57:04.858Z,73.15
2018-03-17T16:59:32.308Z,73.05
2018-03-17T17:01:59.730Z,73.41
2018-03-17T17:04:27.151Z,73.24
2018-03-17T17:06:54.583Z,73.39
2018-03-17T17:09:22.016Z,73.23
2018-03-17T17:11:49.430Z,73.08
2018-03-17T17:14:16.858Z,73.38
2018-03-17T17:16:44.288Z,73.69
2018-03-17T17:19:11.702Z,73.39
2018-03-17T17:21:39.125Z,73.65
2018-03-17T17:24:06.558Z,73.32
2018-03-17T17:26:33.976Z,73.16
2018-03-17T17:29:01.396Z,73.26
2018-03-17T17:31:28.822Z,73.45
2018-03-17T17:33:56.254Z,73.39
2018-03-17T17:36:23.679Z,73.23
2018-03-17T17:38:51.120Z,73.25
2018-03-17T17:41:18.591Z,73.48
2018-03-17T17:43:45.981Z,73.41
2018-03-17T17:46:13.398Z,73.50
2018-03-17T17:48:40.826Z,73.23
2018-03-17T17:51:08.255Z,73.47
2018-03-17T17:53:35.707Z,73.59
2018-03-17T17:56:03.141Z,73.57
2018-03-17T17:58:30.652Z,73.53
2018-03-17T18:00:58.040Z,73.61
2018-03-17T18:03:25.474Z,73.33
2018-03-17T18:05:52.927Z,73.94
2018-03-17T18:08:20.370Z,73.54
2018-03-17T18:10:47.798Z,73.55
2018-03-17T18:13:15.240Z,73.61
2018-03-17T18:15:42.684Z,73.82
2018-03-17T18:18:10.115Z,73.84
2018-03-17T18:20:37.550Z,73.94
2018-03-17T18:23:04.979Z,73.65
2018-03-17T18:25:32.413Z,73.92
2018-03-17T18:27:59.830Z,73.85
2018-03-17T18:30:27.287Z,73.79
2018-03-17T18:32:54.714Z,73.73
2018-03-17T18:35:22.144Z,73.79
2018-03-17T18:37:49.599Z,73.78
2018-03-17T18:40:17.030Z,73.71
2018-03-17T18:42:44.451Z,73.95
2018-03-17T18:45:11.883Z,74.05
2018-03-17T18:47:39.328Z,73.69
2018-03-17T18:50:06.758Z,74.05
2018-03-17T18:52:34.203Z,74.05
2018-03-17T18:55:01.619Z,74.18
2018-03-17T18:57:32.850Z,74.43
2018-03-17T19:00:00.285Z,74.25
2018-03-17T19:02:27.731Z,73.78
2018-03-17T19:04:55.172Z,74.35
2018-03-17T19:07:23.050Z,74.39
2018-03-17T19:09:50.616Z,74.01
2018-03-17T19:12:18.063Z,74.51
2018-03-17T19:14:45.684Z,74.52
2018-03-17T19:17:13.107Z,74.37
2018-03-17T19:19:40.531Z,74.47
2018-03-17T19:22:07.958Z,74.37
2018-03-17T19:24:35.392Z,74.89
2018-03-17T19:27:02.830Z,74.76
2018-03-17T19:29:30.280Z,74.73
2018-03-17T19:31:57.740Z,74.86
2018-03-17T19:34:25.190Z,74.64
2018-03-17T19:36:52.654Z,74.88
2018-03-17T19:39:20.070Z,74.70
2018-03-17T19:41:47.507Z,74.84
2018-03-17T19:44:14.973Z,74.54
2018-03-17T19:46:42.377Z,74.80
2018-03-17T19:49:11.336Z,74.70
2018-03-17T19:51:38.776Z,74.53
2018-03-17T19:54:06.279Z,74.85
2018-03-17T19:56:33.706Z,74.61
2018-03-17T19:59:01.152Z,74.73
2018-03-17T20:01:28.636Z,74.99
2018-03-17T20:03:56.022Z,75.10
2018-03-17T20:06:23.691Z,74.90
2018-03-17T20:08:51.111Z,74.89
2018-03-17T20:11:18.544Z,75.14
2018-03-17T20:13:45.983Z,75.22
2018-03-17T20:16:13.402Z,75.44
2018-03-17T20:18:40.830Z,75.64
2018-03-17T20:21:08.271Z,75.93
2018-03-17T20:23:35.713Z,76.49
2018-03-17T20:26:03.141Z,77.25
2018-03-17T20:28:30.707Z,77.12
2018-03-17T20:30:58.126Z,76.96
2018-03-17T20:33:25.571Z,76.88
2018-03-17T20:35:53.011Z,76.75
2018-03-17T20:38:20.443Z,75.85
2018-03-17T20:40:47.867Z,76.15
2018-03-17T20:43:15.311Z,76.18
2018-03-17T20:45:42.752Z,76.04
2018-03-17T20:48:10.200Z,75.64
2018-03-17T20:50:40.124Z,75.87
2018-03-17T20:53:07.575Z,76.08
2018-03-17T20:55:35.004Z,76.06
2018-03-17T20:58:02.500Z,75.72
2018-03-17T21:00:29.909Z,75.82
2018-03-17T21:02:57.386Z,75.73
2018-03-17T21:05:24.828Z,75.89
2018-03-17T21:07:52.294Z,75.74
2018-03-17T21:10:19.744Z,75.91
2018-03-17T21:12:50.904Z,75.71
2018-03-17T21:15:30.830Z,75.76
2018-03-17T21:17:58.287Z,76.11
2018-03-17T21:20:25.744Z,76.16
2018-03-17T21:22:53.186Z,77.41
2018-03-17T21:25:23.427Z,79.13
2018-03-17T21:27:56.229Z,81.00
2018-03-17T21:30:27.325Z,82.25
2018-03-17T21:32:54.859Z,83.13
2018-03-17T21:35:22.586Z,84.12
2018-03-17T21:37:50.032Z,85.22
2018-03-17T21:40:17.460Z,85.24
2018-03-17T21:42:47.234Z,85.30
2018-03-17T21:45:14.690Z,85.14
2018-03-17T21:47:42.119Z,85.44
2018-03-17T21:50:09.540Z,85.90
2018-03-17T21:52:36.961Z,86.43
2018-03-17T21:55:04.404Z,87.00
2018-03-17T21:57:31.929Z,87.47
2018-03-17T22:02:37.440Z,88.13
2018-03-17T22:05:04.875Z,87.95
2018-03-17T22:07:32.282Z,87.73
2018-03-17T22:09:59.698Z,87.45
2018-03-17T22:12:27.121Z,87.57
2018-03-17T22:14:54.547Z,87.29
2018-03-17T22:17:21.956Z,87.43
2018-03-17T22:19:49.377Z,86.71
2018-03-17T22:22:16.782Z,86.33
2018-03-17T22:24:44.206Z,86.28
2018-03-17T22:27:11.622Z,86.80
2018-03-17T22:29:39.042Z,86.18
2018-03-17T22:32:06.443Z,86.17
2018-03-17T22:34:33.854Z,86.20
2018-03-17T22:37:01.262Z,86.29
2018-03-17T22:39:28.695Z,87.01
2018-03-17T22:41:56.100Z,86.84
2018-03-17T22:44:23.513Z,86.79
2018-03-17T22:46:50.939Z,86.63
2018-03-17T22:49:18.361Z,86.76
2018-03-17T22:51:45.795Z,86.83
2018-03-17T22:54:13.206Z,87.02
2018-03-17T22:56:40.619Z,87.30
2018-03-17T22:59:08.028Z,87.20
2018-03-17T23:01:35.458Z,87.11
2018-03-17T23:04:02.868Z,86.99
2018-03-17T23:06:30.290Z,87.32
2018-03-17T23:08:57.756Z,87.29
2018-03-17T23:11:25.170Z,87.45
2018-03-17T23:13:52.573Z,87.78
2018-03-17T23:16:19.994Z,87.91
2018-03-17T23:18:47.578Z,87.83
2018-03-17T23:21:14.997Z,87.86
2018-03-17T23:23:42.416Z,87.69
2018-03-17T23:26:09.821Z,87.84
2018-03-17T23:28:37.237Z,87.75
2018-03-17T23:31:04.655Z,88.20
2018-03-17T23:33:32.087Z,88.12
2018-03-17T23:35:59.500Z,87.78
2018-03-17T23:38:26.914Z,87.94
2018-03-17T23:40:54.325Z,87.87
2018-03-17T23:43:21.746Z,87.53
2018-03-17T23:45:49.162Z,87.95
2018-03-17T23:48:16.582Z,87.83
2018-03-17T23:50:43.998Z,87.58
2018-03-17T23:53:11.417Z,87.73
2018-03-17T23:55:38.836Z,87.57
2018-03-17T23:58:06.254Z,87.84
